createdAt,value
2023-01-19T00:02:14.713Z,-0.38
2023-01-19T00:05:03.936Z,-0.54
2023-01-19T00:07:51.908Z,-0.58
2023-01-19T00:10:41.473Z,-0.51
2023-01-19T00:13:29.512Z,-0.44
2023-01-19T00:16:18.587Z,-0.42
2023-01-19T00:19:06.515Z,-0.41
2023-01-19T00:21:54.570Z,-0.52
2023-01-19T00:24:42.722Z,-0.48
2023-01-19T00:27:34.937Z,-0.48
2023-01-19T00:30:22.969Z,-0.62
2023-01-19T00:33:13.649Z,-0.48
2023-01-19T00:36:01.574Z,-0.68
2023-01-19T00:38:49.464Z,-0.73
2023-01-19T00:41:57.188Z,-0.55
2023-01-19T00:44:46.521Z,-0.38
2023-01-19T00:47:34.529Z,-0.37
2023-01-19T00:50:22.427Z,-0.42
2023-01-19T00:53:10.450Z,-0.35
2023-01-19T00:55:58.369Z,-0.37
2023-01-19T00:58:46.260Z,-0.27
2023-01-19T01:01:45.841Z,-0.30
2023-01-19T01:04:35.382Z,-0.53
2023-01-19T01:07:23.612Z,-0.43
2023-01-19T01:10:13.895Z,-0.29
2023-01-19T01:13:19.968Z,-0.16
2023-01-19T01:16:09.886Z,-0.03
2023-01-19T01:18:59.235Z,-0.10
2023-01-19T01:21:47.218Z,0.06
2023-01-19T01:24:35.170Z,0.09
2023-01-19T01:27:23.199Z,0.02
2023-01-19T01:30:15.069Z,-0.29
2023-01-19T01:33:03.249Z,0.06
2023-01-19T01:35:52.906Z,0.26
2023-01-19T01:38:41.915Z,0.36
2023-01-19T01:41:29.891Z,0.28
2023-01-19T01:44:50.672Z,0.32
2023-01-19T01:47:43.539Z,0.22
2023-01-19T01:50:35.020Z,0.25
2023-01-19T01:53:24.285Z,0.10
2023-01-19T01:56:16.258Z,0.10
2023-01-19T01:59:07.480Z,0.05
2023-01-19T02:02:16.007Z,0.24
2023-01-19T02:05:08.971Z,0.12
2023-01-19T02:08:20.990Z,-0.46
2023-01-19T02:11:28.157Z,0.23
2023-01-19T02:14:16.080Z,0.25
2023-01-19T02:17:04.177Z,0.17
2023-01-19T02:19:52.143Z,0.30
2023-01-19T02:22:48.032Z,0.11
2023-01-19T02:25:37.333Z,0.09
2023-01-19T02:28:26.209Z,0.25
2023-01-19T02:31:15.098Z,0.22
2023-01-19T02:34:04.661Z,0.28
2023-01-19T02:36:56.567Z,0.32
2023-01-19T02:39:50.574Z,0.28
2023-01-19T02:42:44.677Z,0.22
2023-01-19T02:45:32.773Z,0.27
2023-01-19T02:48:22.031Z,0.45
2023-01-19T02:51:15.478Z,0.45
2023-01-19T02:54:23.986Z,0.30
2023-01-19T02:57:39.175Z,0.24
2023-01-19T03:00:37.587Z,-0.09
2023-01-19T03:03:33.778Z,0.04
2023-01-19T03:06:33.192Z,0.10
2023-01-19T03:09:28.298Z,0.29
2023-01-19T03:12:26.216Z,0.34
2023-01-19T03:15:19.854Z,0.26
2023-01-19T03:18:11.642Z,0.26
2023-01-19T03:21:06.963Z,0.24
2023-01-19T03:23:59.551Z,0.35
2023-01-19T03:26:52.886Z,0.17
2023-01-19T03:29:43.975Z,0.19
2023-01-19T03:32:36.348Z,0.26
2023-01-19T03:35:29.936Z,0.23
2023-01-19T03:38:23.142Z,-0.02
2023-01-19T03:41:15.474Z,0.26
2023-01-19T03:44:05.561Z,0.25
2023-01-19T03:46:53.788Z,0.26
2023-01-19T03:49:44.061Z,0.28
2023-01-19T03:52:34.389Z,0.24
2023-01-19T03:55:22.364Z,0.14
2023-01-19T03:58:10.485Z,0.28
2023-01-19T04:00:58.453Z,0.36
2023-01-19T04:03:47.178Z,0.24
2023-01-19T04:06:35.188Z,0.13
2023-01-19T04:09:24.760Z,0.23
2023-01-19T04:12:12.642Z,0.24
2023-01-19T04:15:00.575Z,0.42
2023-01-19T04:17:48.514Z,0.27
2023-01-19T04:20:36.408Z,0.24
2023-01-19T04:23:24.352Z,0.16
2023-01-19T04:26:13.955Z,0.28
2023-01-19T04:29:01.871Z,0.19
2023-01-19T04:31:49.775Z,0.07
2023-01-19T04:34:37.645Z,0.18
2023-01-19T04:37:25.573Z,0.09
2023-01-19T04:40:13.828Z,0.15
2023-01-19T04:43:03.560Z,0.12
2023-01-19T04:45:52.147Z,0.13
2023-01-19T04:48:41.323Z,0.13
2023-01-19T04:51:30.090Z,0.09
2023-01-19T04:54:18.041Z,-0.05
2023-01-19T04:57:06.073Z,-0.07
2023-01-19T04:59:55.514Z,-0.04
2023-01-19T05:02:45.116Z,0.01
2023-01-19T05:05:33.179Z,-0.03
2023-01-19T05:08:21.362Z,0.13
2023-01-19T05:11:09.303Z,0.37
2023-01-19T05:13:58.344Z,0.21
2023-01-19T05:16:47.881Z,0.07
2023-01-19T05:19:35.989Z,0.29
2023-01-19T05:22:24.344Z,0.14
2023-01-19T05:25:12.295Z,0.09
2023-01-19T05:28:00.247Z,0.04
2023-01-19T05:30:49.979Z,0.03
2023-01-19T05:33:39.269Z,-0.01
2023-01-19T05:36:27.195Z,-0.17
2023-01-19T05:39:15.316Z,-0.04
2023-01-19T05:42:03.252Z,-0.01
2023-01-19T05:44:51.193Z,0.01
2023-01-19T05:47:40.318Z,-0.05
2023-01-19T05:50:29.643Z,-0.07
2023-01-19T05:53:18.105Z,0.03
2023-01-19T05:56:08.456Z,-0.01
2023-01-19T05:58:56.467Z,-0.07
2023-01-19T06:01:44.639Z,-0.10
2023-01-19T06:04:33.111Z,-0.14
2023-01-19T06:07:24.279Z,-0.22
2023-01-19T06:10:12.695Z,-0.24
2023-01-19T06:13:00.839Z,-0.23
2023-01-19T06:15:48.939Z,-0.23
2023-01-19T06:18:37.149Z,-0.28
2023-01-19T06:21:25.146Z,-0.27
2023-01-19T06:24:14.690Z,-0.24
2023-01-19T06:27:02.632Z,-0.28
2023-01-19T06:29:50.566Z,-0.23
2023-01-19T06:32:38.511Z,-0.04
2023-01-19T06:35:26.970Z,0.05
2023-01-19T06:38:15.468Z,0.01
2023-01-19T06:41:04.994Z,0.03
2023-01-19T06:43:52.923Z,0.26
2023-01-19T06:46:40.827Z,0.36
2023-01-19T06:49:29.020Z,0.23
2023-01-19T06:52:18.321Z,0.35
2023-01-19T06:55:10.599Z,0.18
2023-01-19T06:58:01.267Z,0.08
2023-01-19T07:00:50.306Z,0.18
2023-01-19T07:03:38.582Z,0.17
2023-01-19T07:06:26.601Z,0.30
2023-01-19T07:09:16.786Z,0.20
2023-01-19T07:12:06.152Z,0.30
2023-01-19T07:14:55.587Z,-0.24
2023-01-19T07:17:43.873Z,0.14
2023-01-19T07:20:31.837Z,0.35
2023-01-19T07:23:19.742Z,0.40
2023-01-19T07:26:07.803Z,0.44
2023-01-19T07:28:55.879Z,0.44
2023-01-19T07:31:45.552Z,0.43
2023-01-19T07:34:34.431Z,0.35
2023-01-19T07:37:22.395Z,0.38
2023-01-19T07:40:11.416Z,0.33
2023-01-19T07:42:59.621Z,0.44
2023-01-19T07:45:47.784Z,0.61
2023-01-19T07:48:37.132Z,0.57
2023-01-19T07:51:25.061Z,0.56
2023-01-19T07:54:13.126Z,0.61
2023-01-19T07:57:01.684Z,0.57
2023-01-19T07:59:49.696Z,0.64
2023-01-19T08:02:37.896Z,0.59
2023-01-19T08:05:28.892Z,0.59
2023-01-19T08:08:16.842Z,0.60
2023-01-19T08:11:04.893Z,0.54
2023-01-19T08:13:52.847Z,-0.12
2023-01-19T08:16:40.817Z,0.57
2023-01-19T08:19:28.767Z,0.65
2023-01-19T08:22:18.174Z,0.66
2023-01-19T08:25:06.907Z,0.65
2023-01-19T08:27:56.384Z,0.65
2023-01-19T08:30:45.448Z,0.40
2023-01-19T08:33:33.459Z,0.48
2023-01-19T08:36:22.570Z,0.49
2023-01-19T08:39:13.173Z,0.57
2023-01-19T08:42:01.115Z,0.77
2023-01-19T08:44:57.730Z,0.70
2023-01-19T08:47:46.169Z,0.85
2023-01-19T08:50:35.194Z,1.02
2023-01-19T08:53:24.408Z,0.83
2023-01-19T08:56:14.354Z,0.64
2023-01-19T08:59:09.893Z,1.11
2023-01-19T09:01:58.508Z,1.18
2023-01-19T09:04:46.523Z,1.02
2023-01-19T09:07:35.701Z,1.06
2023-01-19T09:10:23.874Z,1.34
2023-01-19T09:13:13.932Z,1.27
2023-01-19T09:16:03.573Z,1.37
2023-01-19T09:18:51.496Z,1.24
2023-01-19T09:21:39.405Z,1.39
2023-01-19T09:24:27.607Z,1.21
2023-01-19T09:27:15.523Z,1.31
2023-01-19T09:30:06.946Z,1.19
2023-01-19T09:32:55.137Z,1.35
2023-01-19T09:35:43.796Z,1.33
2023-01-19T09:38:32.896Z,1.21
2023-01-19T09:41:23.289Z,0.96
2023-01-19T09:44:17.555Z,0.88
2023-01-19T09:47:15.188Z,0.76
2023-01-19T09:50:06.669Z,0.65
2023-01-19T09:53:01.209Z,0.87
2023-01-19T09:55:49.958Z,0.98
2023-01-19T09:58:37.964Z,1.06
2023-01-19T10:01:38.878Z,1.26
2023-01-19T10:04:32.388Z,1.28
2023-01-19T10:07:33.642Z,0.62
2023-01-19T10:10:23.617Z,1.55
2023-01-19T10:13:25.823Z,1.54
2023-01-19T10:16:27.091Z,1.49
2023-01-19T10:19:22.853Z,1.83
2023-01-19T10:22:21.706Z,1.73
2023-01-19T10:25:18.506Z,1.61
2023-01-19T10:28:06.519Z,1.78
2023-01-19T10:30:55.864Z,1.66
2023-01-19T10:33:43.812Z,1.63
2023-01-19T10:36:37.267Z,1.88
2023-01-19T10:39:26.696Z,2.23
2023-01-19T10:42:17.222Z,2.20
2023-01-19T10:45:15.496Z,2.62
2023-01-19T10:48:08.203Z,2.47
2023-01-19T10:51:03.628Z,2.72
2023-01-19T10:54:00.866Z,2.42
2023-01-19T10:56:55.608Z,2.20
2023-01-19T10:59:50.698Z,2.03
2023-01-19T11:02:38.894Z,2.06
2023-01-19T11:05:28.997Z,1.98
2023-01-19T11:08:24.436Z,2.09
2023-01-19T11:11:12.908Z,1.88
2023-01-19T11:14:10.818Z,2.13
2023-01-19T11:16:59.855Z,2.21
2023-01-19T11:19:56.948Z,1.96
2023-01-19T11:22:44.945Z,2.03
2023-01-19T11:25:35.004Z,1.98
2023-01-19T11:28:28.553Z,1.91
2023-01-19T11:31:32.807Z,2.01
2023-01-19T11:34:27.721Z,2.10
2023-01-19T11:37:31.232Z,2.01
2023-01-19T11:40:19.285Z,2.26
2023-01-19T11:43:10.982Z,2.44
2023-01-19T11:45:59.723Z,2.65
2023-01-19T11:48:57.169Z,2.52
2023-01-19T11:51:51.899Z,2.56
2023-01-19T11:54:56.062Z,2.33
2023-01-19T11:57:47.849Z,2.28
2023-01-19T12:00:39.220Z,2.33
2023-01-19T12:03:31.638Z,2.38
2023-01-19T12:06:25.373Z,2.31
2023-01-19T12:09:19.193Z,2.43
2023-01-19T12:12:12.718Z,2.49
2023-01-19T12:15:06.155Z,2.37
2023-01-19T12:17:58.793Z,2.24
2023-01-19T12:20:50.774Z,2.25
2023-01-19T12:23:52.253Z,1.95
2023-01-19T12:26:49.754Z,1.97
2023-01-19T12:29:38.021Z,2.22
2023-01-19T12:32:34.815Z,2.23
2023-01-19T12:35:58.501Z,2.30
2023-01-19T12:38:53.415Z,2.26
2023-01-19T12:41:42.757Z,2.28
2023-01-19T12:44:34.061Z,2.40
2023-01-19T12:47:24.388Z,2.35
2023-01-19T12:50:19.009Z,2.49
2023-01-19T12:53:18.479Z,2.60
2023-01-19T12:56:10.082Z,2.48
2023-01-19T12:58:58.326Z,2.58
2023-01-19T13:02:25.180Z,2.63
2023-01-19T13:05:57.682Z,2.38
2023-01-19T13:09:00.168Z,2.60
2023-01-19T13:12:20.141Z,2.73
2023-01-19T13:15:29.187Z,2.50
2023-01-19T13:18:19.640Z,2.70
2023-01-19T13:21:09.687Z,2.55
2023-01-19T13:23:59.364Z,2.37
2023-01-19T13:26:57.414Z,2.49
2023-01-19T13:29:47.136Z,2.47
2023-01-19T13:32:35.144Z,2.41
2023-01-19T13:35:24.594Z,2.38
2023-01-19T13:38:15.328Z,2.41
2023-01-19T13:41:04.490Z,2.53
2023-01-19T13:43:59.733Z,2.58
2023-01-19T13:46:50.024Z,2.59
2023-01-19T13:49:41.361Z,2.65
2023-01-19T13:52:30.569Z,2.72
2023-01-19T13:55:20.477Z,2.68
2023-01-19T13:58:22.066Z,2.75
2023-01-19T14:01:21.653Z,2.67
2023-01-19T14:04:29.957Z,2.62
2023-01-19T14:07:26.106Z,2.41
2023-01-19T14:10:16.801Z,2.65
2023-01-19T14:13:06.839Z,2.52
2023-01-19T14:15:58.138Z,2.56
2023-01-19T14:18:46.119Z,2.58
2023-01-19T14:21:41.914Z,2.47
2023-01-19T14:24:32.862Z,2.66
2023-01-19T14:27:24.031Z,2.42
2023-01-19T14:30:22.172Z,2.54
2023-01-19T14:33:33.708Z,2.65
2023-01-19T14:36:28.535Z,2.72
2023-01-19T14:39:26.004Z,2.67
2023-01-19T14:42:18.784Z,2.73
2023-01-19T14:45:15.547Z,2.63
2023-01-19T14:48:05.852Z,2.62
2023-01-19T14:51:03.663Z,2.55
2023-01-19T14:53:54.142Z,2.68
2023-01-19T14:56:43.378Z,2.71
2023-01-19T14:59:31.649Z,2.73
2023-01-19T15:02:19.979Z,2.67
2023-01-19T15:05:08.819Z,2.57
2023-01-19T15:07:57.025Z,2.62
2023-01-19T15:10:45.279Z,2.60
2023-01-19T15:13:34.854Z,2.76
2023-01-19T15:16:24.136Z,2.73
2023-01-19T15:19:13.566Z,2.68
2023-01-19T15:22:01.521Z,2.75
2023-01-19T15:24:49.665Z,2.51
2023-01-19T15:27:37.665Z,2.41
2023-01-19T15:30:29.637Z,2.53
2023-01-19T15:33:20.924Z,2.38
2023-01-19T15:36:13.125Z,2.21
2023-01-19T15:39:01.168Z,2.40
2023-01-19T15:41:49.138Z,2.33
2023-01-19T15:44:37.092Z,2.15
2023-01-19T15:47:26.337Z,2.18
2023-01-19T15:50:14.271Z,2.09
2023-01-19T15:53:02.305Z,1.90
2023-01-19T15:55:52.000Z,1.90
2023-01-19T15:58:39.966Z,1.80
2023-01-19T16:01:31.525Z,2.00
2023-01-19T16:04:21.052Z,1.90
2023-01-19T16:07:09.005Z,1.99
2023-01-19T16:09:56.955Z,1.99
2023-01-19T16:12:45.275Z,1.96
2023-01-19T16:15:35.484Z,2.01
2023-01-19T16:18:23.381Z,1.89
2023-01-19T16:21:12.749Z,1.82
2023-01-19T16:24:00.682Z,1.68
2023-01-19T16:26:48.606Z,1.60
2023-01-19T16:29:36.542Z,1.54
2023-01-19T16:32:24.633Z,1.57
2023-01-19T16:35:12.771Z,1.45
2023-01-19T16:38:02.064Z,1.54
2023-01-19T16:40:50.143Z,1.50
2023-01-19T16:43:38.069Z,1.50
2023-01-19T16:46:27.964Z,1.47
2023-01-19T16:49:17.897Z,1.28
2023-01-19T16:52:06.029Z,1.41
2023-01-19T16:54:55.289Z,1.35
2023-01-19T16:57:43.245Z,1.37
2023-01-19T17:00:31.209Z,1.27
2023-01-19T17:03:19.280Z,0.60
2023-01-19T17:06:08.661Z,1.30
2023-01-19T17:08:56.643Z,1.24
2023-01-19T17:11:46.170Z,1.19
2023-01-19T17:14:34.324Z,1.28
2023-01-19T17:17:22.430Z,1.28
2023-01-19T17:20:11.753Z,1.17
2023-01-19T17:22:59.855Z,1.07
2023-01-19T17:25:53.420Z,0.93
2023-01-19T17:28:42.861Z,1.18
2023-01-19T17:31:32.059Z,1.18
2023-01-19T17:34:20.124Z,1.10
2023-01-19T17:37:08.145Z,1.19
2023-01-19T17:40:26.530Z,1.14
2023-01-19T17:43:14.455Z,1.07
2023-01-19T17:46:03.796Z,1.08
2023-01-19T17:48:53.124Z,1.10
2023-01-19T17:51:41.083Z,0.83
2023-01-19T17:54:29.049Z,1.05
2023-01-19T17:57:16.995Z,1.04
2023-01-19T18:00:05.452Z,1.05
2023-01-19T18:03:01.639Z,0.96
2023-01-19T18:05:54.164Z,1.05
2023-01-19T18:08:44.168Z,0.93
2023-01-19T18:11:32.077Z,0.96
2023-01-19T18:14:19.989Z,0.86
2023-01-19T18:17:08.159Z,0.96
2023-01-19T18:19:57.549Z,0.92
2023-01-19T18:22:45.470Z,0.99
2023-01-19T18:25:33.372Z,0.86
2023-01-19T18:28:21.293Z,1.04
2023-01-19T18:31:10.792Z,0.94
2023-01-19T18:33:58.926Z,0.97
2023-01-19T18:36:48.166Z,0.95
2023-01-19T18:39:36.527Z,0.89
2023-01-19T18:42:24.427Z,0.96
2023-01-19T18:45:12.944Z,1.01
2023-01-19T18:48:02.064Z,0.85
2023-01-19T18:50:50.033Z,0.98
2023-01-19T18:53:39.684Z,1.07
2023-01-19T18:56:27.729Z,0.97
2023-01-19T18:59:15.626Z,0.86
2023-01-19T19:02:06.594Z,0.93
2023-01-19T19:04:54.582Z,0.94
2023-01-19T19:07:42.505Z,1.03
2023-01-19T19:10:31.871Z,0.97
2023-01-19T19:13:21.730Z,0.92
2023-01-19T19:16:11.416Z,1.01
2023-01-19T19:19:00.356Z,0.94
2023-01-19T19:21:48.908Z,0.94
2023-01-19T19:24:36.884Z,1.16
2023-01-19T19:27:27.265Z,1.06
2023-01-19T19:30:15.890Z,1.23
2023-01-19T19:33:03.926Z,1.22
2023-01-19T19:35:57.373Z,1.18
2023-01-19T19:38:47.437Z,1.08
2023-01-19T19:41:37.209Z,0.96
2023-01-19T19:44:26.504Z,0.99
2023-01-19T19:47:14.439Z,0.99
2023-01-19T19:50:02.323Z,1.15
2023-01-19T19:52:50.229Z,1.19
2023-01-19T19:55:38.132Z,1.19
2023-01-19T19:58:26.887Z,1.02
2023-01-19T20:01:18.409Z,1.22
2023-01-19T20:04:08.517Z,1.24
2023-01-19T20:06:56.446Z,1.22
2023-01-19T20:09:45.224Z,1.16
2023-01-19T20:12:33.330Z,1.31
2023-01-19T20:15:21.378Z,1.25
2023-01-19T20:18:10.652Z,1.30
2023-01-19T20:20:58.917Z,1.40
2023-01-19T20:23:47.900Z,1.35
2023-01-19T20:26:39.996Z,1.32
2023-01-19T20:29:28.058Z,1.31
2023-01-19T20:32:16.027Z,1.17
2023-01-19T20:35:06.119Z,1.22
2023-01-19T20:37:54.113Z,1.24
2023-01-19T20:40:42.057Z,1.07
2023-01-19T20:43:31.154Z,1.02
2023-01-19T20:46:19.700Z,0.99
2023-01-19T20:49:07.959Z,0.97
2023-01-19T20:51:57.243Z,0.90
2023-01-19T20:54:45.231Z,0.91
2023-01-19T20:57:33.187Z,0.90
2023-01-19T21:00:21.733Z,0.73
2023-01-19T21:03:09.681Z,0.75
2023-01-19T21:05:59.577Z,0.69
2023-01-19T21:08:50.418Z,0.64
2023-01-19T21:11:39.716Z,0.66
2023-01-19T21:14:27.957Z,0.68
2023-01-19T21:17:15.869Z,0.72
2023-01-19T21:20:04.184Z,0.71
2023-01-19T21:22:52.405Z,0.63
2023-01-19T21:25:49.257Z,0.72
2023-01-19T21:28:37.266Z,0.68
2023-01-19T21:31:27.591Z,0.69
2023-01-19T21:34:16.037Z,0.68
2023-01-19T21:37:03.979Z,0.69
2023-01-19T21:39:51.927Z,0.80
2023-01-19T21:42:41.651Z,0.80
2023-01-19T21:45:29.630Z,0.74
2023-01-19T21:48:18.312Z,0.75
2023-01-19T21:51:06.752Z,0.63
2023-01-19T21:53:59.202Z,0.60
2023-01-19T21:56:47.151Z,0.63
2023-01-19T21:59:36.445Z,0.49
2023-01-19T22:02:37.860Z,0.54
2023-01-19T22:05:26.609Z,0.46
2023-01-19T22:08:14.604Z,0.44
2023-01-19T22:11:06.282Z,0.47
2023-01-19T22:13:55.018Z,0.53
2023-01-19T22:16:44.328Z,0.50
2023-01-19T22:19:32.308Z,0.65
2023-01-19T22:22:20.248Z,0.65
2023-01-19T22:25:08.790Z,0.69
2023-01-19T22:27:58.615Z,0.57
2023-01-19T22:30:46.695Z,0.53
2023-01-19T22:33:36.722Z,0.64
2023-01-19T22:36:26.074Z,0.65
2023-01-19T22:39:14.267Z,0.65
2023-01-19T22:42:02.250Z,0.65
2023-01-19T22:44:50.226Z,0.53
2023-01-19T22:47:38.173Z,0.58
2023-01-19T22:50:27.498Z,0.68
2023-01-19T22:53:15.480Z,0.58
2023-01-19T22:56:11.676Z,0.63
2023-01-19T22:59:00.668Z,0.57
2023-01-19T23:01:50.407Z,0.46
2023-01-19T23:04:39.433Z,0.45
2023-01-19T23:07:28.705Z,0.52
2023-01-19T23:10:17.336Z,0.56
2023-01-19T23:13:05.251Z,0.55
2023-01-19T23:15:53.271Z,0.50
2023-01-19T23:18:42.565Z,0.61
2023-01-19T23:21:32.285Z,0.60
2023-01-19T23:24:21.625Z,0.61
2023-01-19T23:27:11.054Z,0.66
2023-01-19T23:29:59.027Z,0.64
2023-01-19T23:32:50.620Z,0.69
2023-01-19T23:35:38.573Z,0.68
2023-01-19T23:38:26.556Z,0.73
2023-01-19T23:41:15.918Z,0.57
2023-01-19T23:44:04.148Z,0.59
2023-01-19T23:46:52.234Z,0.72
2023-01-19T23:49:40.364Z,0.66
2023-01-19T23:52:28.385Z,0.66
2023-01-19T23:55:16.932Z,0.69
2023-01-19T23:58:06.213Z,0.67
